createdAt,value
2018-03-29T00:00:19.646Z,95918.19
2018-03-29T00:00:51.275Z,95915.66
2018-03-29T00:01:22.898Z,95919.88
2018-03-29T00:01:54.524Z,95921.05
2018-03-29T00:02:26.155Z,95918.92
2018-03-29T00:02:57.827Z,95925.30
2018-03-29T00:03:29.454Z,95923.45
2018-03-29T00:04:01.086Z,95918.61
2018-03-29T00:04:32.710Z,95917.39
2018-03-29T00:05:04.333Z,95918.09
2018-03-29T00:05:35.961Z,95916.80
2018-03-29T00:06:07.592Z,95919.19
2018-03-29T00:06:39.218Z,95911.53
2018-03-29T00:07:11.058Z,95919.83
2018-03-29T00:07:42.692Z,95913.01
2018-03-29T00:08:14.324Z,95921.16
2018-03-29T00:08:45.954Z,95921.04
2018-03-29T00:09:17.586Z,95913.70
2018-03-29T00:09:49.216Z,95922.70
2018-03-29T00:10:20.846Z,95905.64
2018-03-29T00:10:52.470Z,95920.38
2018-03-29T00:11:24.099Z,95919.52
2018-03-29T00:11:55.726Z,95913.58
2018-03-29T00:12:27.399Z,95922.16
2018-03-29T00:12:59.063Z,95915.05
2018-03-29T00:13:30.690Z,95913.27
2018-03-29T00:14:02.314Z,95911.09
2018-03-29T00:14:33.938Z,95912.59
2018-03-29T00:15:05.567Z,95909.16
2018-03-29T00:15:37.230Z,95914.41
2018-03-29T00:16:08.859Z,95909.02
2018-03-29T00:16:40.486Z,95911.67
2018-03-29T00:17:12.114Z,95909.41
2018-03-29T00:17:43.795Z,95906.86
2018-03-29T00:18:15.399Z,95908.89
2018-03-29T00:18:47.031Z,95911.12
2018-03-29T00:19:18.705Z,95911.98
2018-03-29T00:19:50.337Z,95914.98
2018-03-29T00:20:21.965Z,95913.67
2018-03-29T00:20:53.586Z,95914.09
2018-03-29T00:21:25.254Z,95916.20
2018-03-29T00:21:56.882Z,95920.38
2018-03-29T00:22:28.510Z,95921.52
2018-03-29T00:23:00.134Z,95920.44
2018-03-29T00:23:31.758Z,95919.19
2018-03-29T00:24:03.382Z,95923.46
2018-03-29T00:24:35.006Z,95913.36
2018-03-29T00:25:06.635Z,95919.77
2018-03-29T00:25:38.258Z,95920.95
2018-03-29T00:26:09.885Z,95920.78
2018-03-29T00:26:41.550Z,95923.72
2018-03-29T00:27:13.174Z,95917.05
2018-03-29T00:27:44.810Z,95923.30
2018-03-29T00:28:16.482Z,95920.81
2018-03-29T00:28:48.115Z,95920.94
2018-03-29T00:29:19.737Z,95928.59
2018-03-29T00:29:51.366Z,95930.28
2018-03-29T00:30:22.995Z,95919.66
2018-03-29T00:30:54.619Z,95926.10
2018-03-29T00:31:26.290Z,95924.86
2018-03-29T00:31:57.926Z,95923.61
2018-03-29T00:32:29.554Z,95922.84
2018-03-29T00:33:01.178Z,95920.20
2018-03-29T00:33:32.806Z,95916.06
2018-03-29T00:34:04.434Z,95913.95
2018-03-29T00:34:36.068Z,95907.42
2018-03-29T00:35:07.695Z,95900.34
2018-03-29T00:35:39.318Z,95894.90
2018-03-29T00:36:10.990Z,95887.73
2018-03-29T00:36:42.649Z,95886.45
2018-03-29T00:37:14.288Z,95884.28
2018-03-29T00:37:45.958Z,95886.33
2018-03-29T00:38:17.590Z,95891.05
2018-03-29T00:38:49.218Z,95903.95
2018-03-29T00:39:20.841Z,95895.02
2018-03-29T00:39:52.467Z,95893.33
2018-03-29T00:40:24.094Z,95886.61
2018-03-29T00:40:55.719Z,95879.83
2018-03-29T00:41:27.350Z,95872.49
2018-03-29T00:41:59.031Z,95875.05
2018-03-29T00:42:30.659Z,95874.69
2018-03-29T00:43:02.281Z,95881.95
2018-03-29T00:43:33.915Z,95895.47
2018-03-29T00:44:05.547Z,95902.77
2018-03-29T00:44:37.171Z,95912.99
2018-03-29T00:45:08.794Z,95917.64
2018-03-29T00:45:40.418Z,95921.02
2018-03-29T00:46:12.042Z,95924.41
2018-03-29T00:46:43.666Z,95925.70
2018-03-29T00:47:15.338Z,95923.58
2018-03-29T00:47:47.014Z,95925.70
2018-03-29T00:48:18.641Z,95930.27
2018-03-29T00:48:50.265Z,95923.58
2018-03-29T00:49:21.890Z,95926.47
2018-03-29T00:49:53.514Z,95932.59
2018-03-29T00:50:25.142Z,95925.00
2018-03-29T00:50:56.765Z,95927.88
2018-03-29T00:51:28.386Z,95932.17
2018-03-29T00:52:00.017Z,95930.48
2018-03-29T00:52:31.646Z,95925.45
2018-03-29T00:53:03.318Z,95925.45
2018-03-29T00:53:34.958Z,95929.21
2018-03-29T00:54:06.595Z,95928.80
2018-03-29T00:54:38.222Z,95923.82
2018-03-29T00:55:09.854Z,95928.80
2018-03-29T00:55:41.482Z,95916.53
2018-03-29T00:56:13.111Z,95924.17
2018-03-29T00:56:44.774Z,95916.65
2018-03-29T00:57:16.405Z,95913.24
2018-03-29T00:57:48.026Z,95920.64
2018-03-29T00:58:19.660Z,95917.49
2018-03-29T00:58:51.302Z,95918.47
2018-03-29T00:59:22.932Z,95912.13
2018-03-29T00:59:54.553Z,95920.04
2018-03-29T01:00:26.261Z,95918.77
2018-03-29T01:00:57.889Z,95920.87
2018-03-29T01:01:29.563Z,95920.58
2018-03-29T01:02:01.195Z,95917.66
2018-03-29T01:02:32.822Z,95923.75
2018-03-29T01:03:04.450Z,95921.73
2018-03-29T01:03:36.073Z,95924.13
2018-03-29T01:04:07.698Z,95924.34
2018-03-29T01:04:39.334Z,95921.15
2018-03-29T01:05:10.958Z,95923.95
2018-03-29T01:05:42.577Z,95915.66
2018-03-29T01:06:14.207Z,95924.98
2018-03-29T01:06:45.890Z,95922.47
2018-03-29T01:07:17.523Z,95918.71
2018-03-29T01:07:49.156Z,95914.41
2018-03-29T01:08:20.777Z,95913.20
2018-03-29T01:08:52.406Z,95647.70
2018-03-29T01:09:24.030Z,95904.59
2018-03-29T01:09:55.663Z,95907.53
2018-03-29T01:10:27.290Z,95909.58
2018-03-29T01:10:58.922Z,95908.74
2018-03-29T01:11:30.551Z,95914.19
2018-03-29T01:12:02.243Z,95912.06
2018-03-29T01:12:33.870Z,95911.77
2018-03-29T01:13:05.498Z,95920.59
2018-03-29T01:13:37.121Z,95912.41
2018-03-29T01:14:08.750Z,95916.68
2018-03-29T01:14:40.374Z,95923.95
2018-03-29T01:15:12.002Z,95918.88
2018-03-29T01:15:43.626Z,95918.59
2018-03-29T01:16:15.254Z,95927.06
2018-03-29T01:16:46.878Z,95921.48
2018-03-29T01:17:18.554Z,95919.77
2018-03-29T01:17:50.183Z,95924.09
2018-03-29T01:18:21.806Z,95927.54
2018-03-29T01:18:53.456Z,95921.05
2018-03-29T01:19:25.085Z,95927.54
2018-03-29T01:19:56.718Z,95925.38
2018-03-29T01:20:28.343Z,95927.66
2018-03-29T01:20:59.970Z,95925.73
2018-03-29T01:21:31.593Z,95937.73
2018-03-29T01:22:03.214Z,95935.19
2018-03-29T01:22:34.886Z,95937.26
2018-03-29T01:23:06.509Z,95937.45
2018-03-29T01:23:38.133Z,95932.33
2018-03-29T01:24:09.758Z,95933.60
2018-03-29T01:24:41.378Z,95935.32
2018-03-29T01:25:13.010Z,95936.56
2018-03-29T01:25:44.695Z,95937.33
2018-03-29T01:26:16.317Z,95934.81
2018-03-29T01:26:47.938Z,95937.69
2018-03-29T01:27:19.566Z,95933.95
2018-03-29T01:27:51.191Z,95937.42
2018-03-29T01:28:22.824Z,95937.75
2018-03-29T01:28:54.451Z,95932.23
2018-03-29T01:29:26.077Z,95932.65
2018-03-29T01:29:57.715Z,95938.83
2018-03-29T01:30:29.342Z,95938.47
2018-03-29T01:31:01.010Z,95938.86
2018-03-29T01:31:32.683Z,95938.53
2018-03-29T01:32:04.354Z,95935.75
2018-03-29T01:32:35.978Z,95932.82
2018-03-29T01:33:07.607Z,95934.86
2018-03-29T01:33:39.234Z,95940.31
2018-03-29T01:34:10.866Z,95941.59
2018-03-29T01:34:42.546Z,95942.09
2018-03-29T01:35:14.174Z,95938.30
2018-03-29T01:35:45.806Z,95938.75
2018-03-29T01:36:17.434Z,95937.44
2018-03-29T01:36:49.111Z,95936.70
2018-03-29T01:37:20.739Z,95938.13
2018-03-29T01:37:52.366Z,95939.67
2018-03-29T01:38:23.994Z,95940.94
2018-03-29T01:38:55.622Z,95938.69
2018-03-29T01:39:27.254Z,95938.27
2018-03-29T01:39:58.878Z,95940.44
2018-03-29T01:40:30.497Z,95940.47
2018-03-29T01:41:02.122Z,95938.45
2018-03-29T01:41:33.746Z,95944.34
2018-03-29T01:42:05.378Z,95941.36
2018-03-29T01:42:37.002Z,95943.02
2018-03-29T01:43:08.625Z,95941.30
2018-03-29T01:43:40.253Z,95947.13
2018-03-29T01:44:11.882Z,95948.88
2018-03-29T01:44:43.506Z,95949.36
2018-03-29T01:45:15.171Z,95952.34
2018-03-29T01:45:46.834Z,95956.17
2018-03-29T01:46:18.457Z,95950.59
2018-03-29T01:46:50.122Z,95947.67
2018-03-29T01:47:21.754Z,95950.59
2018-03-29T01:47:53.386Z,95949.23
2018-03-29T01:48:25.019Z,95950.95
2018-03-29T01:48:56.646Z,95948.41
2018-03-29T01:49:28.279Z,95949.77
2018-03-29T01:49:59.906Z,95952.29
2018-03-29T01:50:31.533Z,95952.15
2018-03-29T01:51:03.159Z,95955.05
2018-03-29T01:51:34.833Z,95951.70
2018-03-29T01:52:06.458Z,95954.25
2018-03-29T01:52:38.086Z,95951.20
2018-03-29T01:53:09.710Z,95955.76
2018-03-29T01:53:41.334Z,95952.73
2018-03-29T01:54:12.970Z,95959.20
2018-03-29T01:54:44.594Z,95954.58
2018-03-29T01:55:16.222Z,95963.91
2018-03-29T01:55:47.850Z,95962.25
2018-03-29T01:56:19.478Z,95961.42
2018-03-29T01:56:51.154Z,95960.41
2018-03-29T01:57:22.782Z,95960.09
2018-03-29T01:57:54.406Z,95962.10
2018-03-29T01:58:26.029Z,95960.91
2018-03-29T01:58:57.654Z,95962.61
2018-03-29T01:59:29.282Z,95966.48
2018-03-29T02:00:00.905Z,95963.91
2018-03-29T02:00:32.533Z,95968.17
2018-03-29T02:01:04.159Z,95965.59
2018-03-29T02:01:35.792Z,95973.24
2018-03-29T02:02:07.482Z,95972.30
2018-03-29T02:02:39.110Z,95963.08
2018-03-29T02:03:10.734Z,95966.34
2018-03-29T02:03:42.358Z,95972.73
2018-03-29T02:04:13.988Z,95970.16
2018-03-29T02:04:45.618Z,95976.20
2018-03-29T02:05:17.247Z,95975.38
2018-03-29T02:05:48.878Z,95976.23
2018-03-29T02:06:20.507Z,95967.73
2018-03-29T02:06:52.188Z,95971.59
2018-03-29T02:07:23.818Z,95968.80
2018-03-29T02:07:55.442Z,95969.12
2018-03-29T02:08:27.074Z,95966.57
2018-03-29T02:08:58.706Z,95961.35
2018-03-29T02:09:30.329Z,95957.53
2018-03-29T02:10:01.963Z,95958.12
2018-03-29T02:10:33.590Z,95956.73
2018-03-29T02:11:05.210Z,95957.47
2018-03-29T02:11:36.834Z,95956.25
2018-03-29T02:12:08.453Z,95953.47
2018-03-29T02:12:40.086Z,95965.53
2018-03-29T02:13:11.715Z,95959.63
2018-03-29T02:13:43.352Z,95959.13
2018-03-29T02:14:14.981Z,95964.76
2018-03-29T02:14:46.611Z,95959.63
2018-03-29T02:15:18.237Z,95954.06
2018-03-29T02:15:49.862Z,95956.31
2018-03-29T02:16:21.490Z,95965.62
2018-03-29T02:16:53.170Z,95963.19
2018-03-29T02:17:24.798Z,95957.14
2018-03-29T02:17:56.422Z,95960.49
2018-03-29T02:18:28.062Z,95963.04
2018-03-29T02:18:59.695Z,95969.34
2018-03-29T02:19:31.319Z,95966.92
2018-03-29T02:20:02.943Z,95960.14
2018-03-29T02:20:34.574Z,95960.67
2018-03-29T02:21:06.204Z,95962.80
2018-03-29T02:21:37.826Z,95959.84
2018-03-29T02:22:09.453Z,95956.11
2018-03-29T02:22:41.083Z,95955.70
2018-03-29T02:23:12.710Z,95955.19
2018-03-29T02:23:44.333Z,95951.48
2018-03-29T02:24:15.967Z,95953.77
2018-03-29T02:24:47.602Z,95954.16
2018-03-29T02:25:19.226Z,95951.61
2018-03-29T02:25:50.859Z,95950.28
2018-03-29T02:26:22.486Z,95948.08
2018-03-29T02:26:54.110Z,95945.47
2018-03-29T02:27:25.778Z,95947.52
2018-03-29T02:27:57.405Z,95951.37
2018-03-29T02:28:29.038Z,95952.32
2018-03-29T02:29:00.661Z,95956.14
2018-03-29T02:29:32.282Z,95948.94
2018-03-29T02:30:03.923Z,95952.83
2018-03-29T02:30:35.599Z,95947.79
2018-03-29T02:31:07.227Z,95949.77
2018-03-29T02:31:38.864Z,95951.75
2018-03-29T02:32:10.502Z,95946.75
2018-03-29T02:32:42.132Z,95957.39
2018-03-29T02:33:13.755Z,95953.56
2018-03-29T02:33:45.403Z,95949.03
2018-03-29T02:34:17.042Z,95950.66
2018-03-29T02:34:48.715Z,95951.94
2018-03-29T02:35:20.342Z,95950.31
2018-03-29T02:35:51.965Z,95944.29
2018-03-29T02:36:23.593Z,95945.95
2018-03-29T02:36:55.214Z,95945.21
2018-03-29T02:37:26.843Z,95954.72
2018-03-29T02:37:58.479Z,95950.95
2018-03-29T02:38:30.115Z,95952.94
2018-03-29T02:39:01.784Z,95957.65
2018-03-29T02:39:33.422Z,95957.17
2018-03-29T02:40:05.095Z,95967.59
2018-03-29T02:40:36.722Z,95953.75
2018-03-29T02:41:08.343Z,95954.61
2018-03-29T02:41:39.989Z,95953.17
2018-03-29T02:42:11.619Z,95953.12
2018-03-29T02:42:43.248Z,95963.47
2018-03-29T02:43:14.878Z,95958.94
2018-03-29T02:43:46.538Z,95955.33
2018-03-29T02:44:18.163Z,95958.11
2018-03-29T02:44:49.795Z,95960.81
2018-03-29T02:45:21.466Z,95958.65
2018-03-29T02:45:53.130Z,95951.16
2018-03-29T02:46:24.762Z,95951.59
2018-03-29T02:46:56.386Z,95952.90
2018-03-29T02:47:28.019Z,95960.25
2018-03-29T02:47:59.647Z,95949.70
2018-03-29T02:48:31.275Z,95954.50
2018-03-29T02:49:02.906Z,95960.91
2018-03-29T02:49:34.538Z,95953.35
2018-03-29T02:50:06.165Z,95952.46
2018-03-29T02:50:37.803Z,95960.87
2018-03-29T02:51:09.477Z,95954.56
2018-03-29T02:51:41.107Z,95961.29
2018-03-29T02:52:12.730Z,95958.83
2018-03-29T02:52:44.358Z,95924.12
2018-03-29T02:53:15.986Z,95962.17
2018-03-29T02:53:47.616Z,95959.25
2018-03-29T02:54:19.239Z,95958.45
2018-03-29T02:54:50.876Z,95959.66
2018-03-29T02:55:22.507Z,95957.97
2018-03-29T02:55:54.138Z,95956.58
2018-03-29T02:56:25.815Z,95955.62
2018-03-29T02:56:57.446Z,95953.77
2018-03-29T02:57:29.075Z,95954.70
2018-03-29T02:58:00.702Z,95949.31
2018-03-29T02:58:32.330Z,95956.98
2018-03-29T02:59:03.954Z,95956.78
2018-03-29T02:59:35.583Z,95942.50
2018-03-29T03:00:07.223Z,95960.66
2018-03-29T03:00:38.850Z,95954.01
2018-03-29T03:01:10.488Z,95954.00
2018-03-29T03:01:42.158Z,95956.63
2018-03-29T03:02:13.799Z,95953.07
2018-03-29T03:02:45.422Z,95953.73
2018-03-29T03:03:17.095Z,95960.45
2018-03-29T03:03:48.722Z,95959.30
2018-03-29T03:04:20.347Z,95953.47
2018-03-29T03:04:51.971Z,95964.67
2018-03-29T03:05:23.595Z,95966.05
2018-03-29T03:05:55.226Z,95970.11
2018-03-29T03:06:26.849Z,95974.55
2018-03-29T03:06:58.522Z,95974.62
2018-03-29T03:07:30.146Z,95981.88
2018-03-29T03:08:01.770Z,95983.74
2018-03-29T03:08:33.393Z,95992.63
2018-03-29T03:09:05.018Z,95991.92
2018-03-29T03:09:36.691Z,95992.87
2018-03-29T03:10:08.442Z,95998.83
2018-03-29T03:10:40.075Z,96004.39
2018-03-29T03:11:11.706Z,96010.05
2018-03-29T03:11:43.330Z,96001.99
2018-03-29T03:12:14.959Z,96010.14
2018-03-29T03:12:46.586Z,96016.01
2018-03-29T03:13:18.257Z,96013.02
2018-03-29T03:13:49.882Z,96023.30
2018-03-29T03:14:21.511Z,96016.13
2018-03-29T03:14:53.134Z,96016.09
2018-03-29T03:15:24.766Z,96020.30
2018-03-29T03:15:56.393Z,96025.84
2018-03-29T03:16:28.018Z,96028.42
2018-03-29T03:16:59.647Z,96027.73
2018-03-29T03:17:31.274Z,96028.51
2018-03-29T03:18:02.907Z,96028.00
2018-03-29T03:18:34.578Z,96038.64
2018-03-29T03:19:06.210Z,96043.27
2018-03-29T03:19:37.837Z,96034.38
2018-03-29T03:20:09.472Z,96043.80
2018-03-29T03:20:41.106Z,96030.70
2018-03-29T03:21:12.734Z,96042.16
2018-03-29T03:21:44.358Z,96009.14
2018-03-29T03:22:15.986Z,96043.64
2018-03-29T03:22:47.618Z,96042.28
2018-03-29T03:23:19.242Z,96046.23
2018-03-29T03:23:50.870Z,96047.95
2018-03-29T03:24:22.502Z,96050.50
2018-03-29T03:24:54.131Z,96044.99
2018-03-29T03:25:25.766Z,96050.50
2018-03-29T03:25:57.403Z,96054.88
2018-03-29T03:26:29.069Z,96057.41
2018-03-29T03:27:00.698Z,96045.61
2018-03-29T03:27:32.322Z,96053.25
2018-03-29T03:28:03.951Z,96057.55
2018-03-29T03:28:35.582Z,96055.95
2018-03-29T03:29:07.207Z,96056.33
2018-03-29T03:29:38.830Z,96062.28
2018-03-29T03:30:10.463Z,96067.84
2018-03-29T03:30:42.091Z,96063.31
2018-03-29T03:31:13.733Z,96074.80
2018-03-29T03:31:45.420Z,96068.82
2018-03-29T03:32:17.050Z,96069.80
2018-03-29T03:32:48.679Z,96071.53
2018-03-29T03:33:20.302Z,96077.91
2018-03-29T03:33:51.921Z,96078.82
2018-03-29T03:34:23.551Z,96073.89
2018-03-29T03:34:55.182Z,96073.31
2018-03-29T03:35:26.814Z,96076.69
2018-03-29T03:35:58.447Z,96078.41
2018-03-29T03:36:30.082Z,96079.23
2018-03-29T03:37:01.801Z,96083.00
2018-03-29T03:37:33.462Z,96082.66
2018-03-29T03:38:05.058Z,96084.80
2018-03-29T03:38:36.684Z,96085.60
2018-03-29T03:39:08.313Z,96086.91
2018-03-29T03:39:39.977Z,96090.30
2018-03-29T03:40:11.606Z,96073.84
2018-03-29T03:40:43.230Z,96087.77
2018-03-29T03:41:14.853Z,96085.66
2018-03-29T03:41:46.488Z,96086.88
2018-03-29T03:42:18.114Z,96079.73
2018-03-29T03:42:49.741Z,96084.36
2018-03-29T03:43:21.374Z,96079.23
2018-03-29T03:43:53.041Z,96075.86
2018-03-29T03:44:24.667Z,96079.65
2018-03-29T03:44:56.337Z,96080.75
2018-03-29T03:45:27.962Z,96075.00
2018-03-29T03:45:59.590Z,96087.09
2018-03-29T03:46:31.214Z,96084.94
2018-03-29T03:47:02.841Z,96085.81
2018-03-29T03:47:34.470Z,96092.13
2018-03-29T03:48:06.103Z,96087.84
2018-03-29T03:48:37.726Z,96086.20
2018-03-29T03:49:09.422Z,96087.04
2018-03-29T03:49:41.069Z,96090.86
2018-03-29T03:50:12.697Z,96099.63
2018-03-29T03:50:44.322Z,96098.30
2018-03-29T03:51:15.945Z,96094.54
2018-03-29T03:51:47.590Z,96089.83
2018-03-29T03:52:19.217Z,96099.94
2018-03-29T03:52:50.883Z,96096.89
2018-03-29T03:53:22.506Z,96098.19
2018-03-29T03:53:54.136Z,96099.41
2018-03-29T03:54:25.761Z,96107.41
2018-03-29T03:54:57.391Z,96103.11
2018-03-29T03:55:29.018Z,96106.55
2018-03-29T03:56:00.646Z,96105.63
2018-03-29T03:56:32.274Z,96102.23
2018-03-29T03:57:03.901Z,96103.45
2018-03-29T03:57:35.531Z,96105.99
2018-03-29T03:58:07.154Z,96105.58
2018-03-29T03:58:38.791Z,96108.54
2018-03-29T03:59:10.422Z,96112.36
2018-03-29T03:59:42.094Z,96111.08
2018-03-29T04:00:13.720Z,96107.27
2018-03-29T04:00:45.341Z,96111.56
2018-03-29T04:01:16.975Z,96113.63
2018-03-29T04:01:48.602Z,96113.22
2018-03-29T04:02:20.230Z,96117.52
2018-03-29T04:02:51.881Z,96119.65
2018-03-29T04:03:23.506Z,96119.70
2018-03-29T04:03:55.171Z,96122.69
2018-03-29T04:04:26.793Z,96120.56
2018-03-29T04:04:58.413Z,96129.06
2018-03-29T04:05:30.121Z,96124.88
2018-03-29T04:06:01.746Z,96130.50
2018-03-29T04:06:33.373Z,96125.41
2018-03-29T04:07:05.002Z,96131.36
2018-03-29T04:07:36.638Z,96131.86
2018-03-29T04:08:08.262Z,96135.32
2018-03-29T04:08:39.934Z,96130.64
2018-03-29T04:09:12.086Z,96136.59
2018-03-29T04:09:43.715Z,96144.56
2018-03-29T04:10:15.345Z,96138.70
2018-03-29T04:10:46.966Z,96144.27
2018-03-29T04:11:18.638Z,96142.66
2018-03-29T04:11:50.258Z,96144.84
2018-03-29T04:12:21.881Z,96146.23
2018-03-29T04:12:53.512Z,96144.18
2018-03-29T04:13:25.134Z,96147.22
2018-03-29T04:13:56.762Z,96146.03
2018-03-29T04:14:28.386Z,96147.72
2018-03-29T04:15:00.015Z,96152.09
2018-03-29T04:15:31.638Z,96151.65
2018-03-29T04:16:03.307Z,96151.26
2018-03-29T04:16:34.932Z,96150.02
2018-03-29T04:17:06.557Z,96148.69
2018-03-29T04:17:38.178Z,96158.05
2018-03-29T04:18:09.811Z,96151.70
2018-03-29T04:18:41.437Z,96154.14
2018-03-29T04:19:13.058Z,96158.46
2018-03-29T04:19:44.687Z,96167.37
2018-03-29T04:20:16.319Z,96161.03
2018-03-29T04:20:47.942Z,96169.09
2018-03-29T04:21:19.614Z,96168.62
2018-03-29T04:21:51.285Z,96163.11
2018-03-29T04:22:22.902Z,96163.05
2018-03-29T04:22:54.527Z,96162.19
2018-03-29T04:23:26.159Z,96163.55
2018-03-29T04:23:57.794Z,96162.30
2018-03-29T04:24:29.430Z,96163.94
2018-03-29T04:25:01.064Z,96161.84
2018-03-29T04:25:32.730Z,96166.95
2018-03-29T04:26:04.354Z,96160.59
2018-03-29T04:26:35.978Z,96162.61
2018-03-29T04:27:07.603Z,96175.78
2018-03-29T04:27:39.266Z,96158.32
2018-03-29T04:28:10.902Z,96163.83
2018-03-29T04:28:42.526Z,96164.66
2018-03-29T04:29:14.151Z,96161.34
2018-03-29T04:29:45.778Z,96162.97
2018-03-29T04:30:17.402Z,96157.93
2018-03-29T04:30:49.075Z,96164.66
2018-03-29T04:31:20.698Z,96163.33
2018-03-29T04:31:52.341Z,96170.56
2018-03-29T04:32:23.971Z,96170.53
2018-03-29T04:32:55.645Z,96172.63
2018-03-29T04:33:27.274Z,96174.33
2018-03-29T04:33:58.906Z,96170.09
2018-03-29T04:34:30.534Z,96171.75
2018-03-29T04:35:02.158Z,96177.64
2018-03-29T04:35:33.791Z,96181.52
2018-03-29T04:36:05.418Z,96173.88
2018-03-29T04:36:37.047Z,96179.70
2018-03-29T04:37:08.674Z,96184.88
2018-03-29T04:37:40.303Z,96178.56
2018-03-29T04:38:11.966Z,96180.55
2018-03-29T04:38:43.590Z,96176.34
2018-03-29T04:39:15.218Z,96186.12
2018-03-29T04:39:46.842Z,96186.01
2018-03-29T04:40:18.470Z,96190.69
2018-03-29T04:40:50.134Z,96186.38
2018-03-29T04:41:21.763Z,96187.70
2018-03-29T04:41:53.390Z,96183.98
2018-03-29T04:42:25.014Z,96191.19
2018-03-29T04:42:56.638Z,96179.86
2018-03-29T04:43:28.271Z,96186.92
2018-03-29T04:43:59.898Z,96191.10
2018-03-29T04:44:31.526Z,96191.05
2018-03-29T04:45:03.154Z,96191.08
2018-03-29T04:45:34.818Z,96200.80
2018-03-29T04:46:06.442Z,96198.97
2018-03-29T04:46:38.062Z,96206.20
2018-03-29T04:47:09.683Z,96199.83
2018-03-29T04:47:41.317Z,96205.28
2018-03-29T04:48:12.950Z,96209.94
2018-03-29T04:48:44.574Z,96205.28
2018-03-29T04:49:16.273Z,96213.34
2018-03-29T04:49:47.898Z,96213.42
2018-03-29T04:50:19.522Z,96218.44
2018-03-29T04:50:51.154Z,96218.33
2018-03-29T04:51:22.790Z,96214.64
2018-03-29T04:51:54.462Z,96220.95
2018-03-29T04:52:26.090Z,96219.24
2018-03-29T04:52:57.718Z,96221.30
2018-03-29T04:53:29.338Z,96220.94
2018-03-29T04:54:01.002Z,96222.20
2018-03-29T04:54:32.631Z,96223.92
2018-03-29T04:55:04.258Z,96231.13
2018-03-29T04:55:35.883Z,96242.97
2018-03-29T04:56:07.542Z,96240.89
2018-03-29T04:56:39.174Z,96245.98
2018-03-29T04:57:10.850Z,96247.68
2018-03-29T04:57:42.474Z,96245.98
2018-03-29T04:58:14.098Z,96251.00
2018-03-29T04:58:45.770Z,96244.66
2018-03-29T04:59:17.399Z,96247.62
2018-03-29T04:59:49.022Z,96249.31
2018-03-29T05:00:20.649Z,96256.07
2018-03-29T05:00:52.279Z,96254.38
2018-03-29T05:01:23.914Z,96257.88
2018-03-29T05:01:55.562Z,96248.95
2018-03-29T05:02:27.209Z,96251.52
2018-03-29T05:02:58.829Z,96255.77
2018-03-29T05:03:30.498Z,96255.32
2018-03-29T05:04:02.123Z,96252.77
2018-03-29T05:04:33.750Z,96262.98
2018-03-29T05:05:05.426Z,96263.77
2018-03-29T05:05:37.054Z,96261.69
2018-03-29T05:06:08.684Z,96269.67
2018-03-29T05:06:40.306Z,96268.86
2018-03-29T05:07:11.935Z,96266.39
2018-03-29T05:07:43.562Z,96277.41
2018-03-29T05:08:15.186Z,96282.41
2018-03-29T05:08:46.809Z,96268.42
2018-03-29T05:09:18.434Z,96273.93
2018-03-29T05:09:50.061Z,96272.19
2018-03-29T05:10:21.743Z,96278.69
2018-03-29T05:10:53.374Z,96271.47
2018-03-29T05:11:25.007Z,96273.95
2018-03-29T05:11:56.633Z,96275.28
2018-03-29T05:12:28.258Z,96273.09
2018-03-29T05:12:59.887Z,96268.42
2018-03-29T05:13:31.514Z,96271.41
2018-03-29T05:14:03.137Z,96267.17
2018-03-29T05:14:34.761Z,96279.77
2018-03-29T05:15:06.388Z,96281.05
2018-03-29T05:15:38.054Z,96275.95
2018-03-29T05:16:09.678Z,96276.87
2018-03-29T05:16:41.310Z,96278.09
2018-03-29T05:17:12.942Z,96277.73
2018-03-29T05:17:44.566Z,96274.89
2018-03-29T05:18:16.190Z,96279.47
2018-03-29T05:18:47.814Z,96282.92
2018-03-29T05:19:19.446Z,96278.69
2018-03-29T05:19:51.075Z,96284.38
2018-03-29T05:20:22.706Z,96287.78
2018-03-29T05:20:54.374Z,96297.06
2018-03-29T05:21:26.002Z,96286.48
2018-03-29T05:21:57.631Z,96282.66
2018-03-29T05:22:29.306Z,96289.89
2018-03-29T05:23:00.934Z,96289.42
2018-03-29T05:23:32.585Z,96294.08
2018-03-29T05:24:04.222Z,96288.98
2018-03-29T05:24:35.860Z,96289.77
2018-03-29T05:25:07.486Z,96290.67
2018-03-29T05:25:39.126Z,96294.88
2018-03-29T05:26:10.777Z,96286.46
2018-03-29T05:26:42.422Z,96293.30
2018-03-29T05:27:19.760Z,96294.50
2018-03-29T05:27:54.447Z,96293.66
2018-03-29T05:28:26.070Z,96299.66
2018-03-29T05:28:57.698Z,96296.34
2018-03-29T05:29:29.326Z,96295.51
2018-03-29T05:30:00.994Z,96292.98
2018-03-29T05:30:32.630Z,96293.41
2018-03-29T05:31:04.265Z,96296.89
2018-03-29T05:31:35.898Z,96298.60
2018-03-29T05:32:07.523Z,96301.59
2018-03-29T05:32:39.366Z,96304.55
2018-03-29T05:33:10.994Z,96315.23
2018-03-29T05:33:42.622Z,96294.45
2018-03-29T05:34:14.255Z,96311.42
2018-03-29T05:34:45.887Z,96313.98
2018-03-29T05:35:17.509Z,96305.54
2018-03-29T05:35:49.130Z,96306.81
2018-03-29T05:36:20.755Z,96305.17
2018-03-29T05:36:52.377Z,96311.49
2018-03-29T05:37:24.006Z,96313.59
2018-03-29T05:37:55.674Z,96305.54
2018-03-29T05:38:27.357Z,96314.02
2018-03-29T05:38:59.018Z,96309.86
2018-03-29T05:39:30.646Z,96310.73
2018-03-29T05:40:02.274Z,96320.56
2018-03-29T05:40:33.908Z,96311.49
2018-03-29T05:41:05.627Z,96311.96
2018-03-29T05:41:37.259Z,96313.67
2018-03-29T05:42:18.955Z,96310.38
2018-03-29T05:42:50.647Z,96315.39
2018-03-29T05:43:22.282Z,96315.10
2018-03-29T05:43:53.906Z,96309.59
2018-03-29T05:44:25.538Z,96313.09
2018-03-29T05:44:57.193Z,96314.27
2018-03-29T05:45:28.858Z,96313.05
2018-03-29T05:46:00.483Z,96309.26
2018-03-29T05:46:32.114Z,96313.48
2018-03-29T05:47:03.746Z,96304.31
2018-03-29T05:47:35.374Z,96313.48
2018-03-29T05:48:07.048Z,96313.09
2018-03-29T05:48:38.682Z,96310.97
2018-03-29T05:49:10.306Z,96320.80
2018-03-29T05:49:41.932Z,96315.31
2018-03-29T05:50:13.562Z,96322.87
2018-03-29T05:50:45.194Z,96326.75
2018-03-29T05:51:16.827Z,96320.01
2018-03-29T05:51:48.481Z,96323.80
2018-03-29T05:52:20.123Z,96318.71
2018-03-29T05:52:51.805Z,96320.80
2018-03-29T05:53:23.426Z,96322.51
2018-03-29T05:53:55.055Z,96325.52
2018-03-29T05:54:26.683Z,96324.22
2018-03-29T05:54:58.308Z,96322.87
2018-03-29T05:55:29.942Z,96322.02
2018-03-29T05:56:01.565Z,96326.23
2018-03-29T05:56:33.194Z,96317.75
2018-03-29T05:57:04.813Z,96323.34
2018-03-29T05:57:36.480Z,96325.10
2018-03-29T05:58:08.142Z,96325.10
2018-03-29T05:58:39.772Z,96321.26
2018-03-29T05:59:11.401Z,96326.38
2018-03-29T05:59:43.026Z,96324.66
2018-03-29T06:00:14.662Z,96324.69
2018-03-29T06:00:46.286Z,96338.15
2018-03-29T06:01:17.906Z,96335.16
2018-03-29T06:01:49.535Z,96333.91
2018-03-29T06:02:21.164Z,96336.09
2018-03-29T06:02:52.798Z,96340.77
2018-03-29T06:03:24.479Z,96344.09
2018-03-29T06:03:56.101Z,96340.46
2018-03-29T06:04:27.727Z,96352.65
2018-03-29T06:04:59.359Z,96358.08
2018-03-29T06:05:30.991Z,96354.70
2018-03-29T06:06:02.630Z,96345.74
2018-03-29T06:06:34.254Z,96353.36
2018-03-29T06:07:05.878Z,96349.59
2018-03-29T06:07:37.506Z,96354.99
2018-03-29T06:08:09.130Z,96353.30
2018-03-29T06:08:40.754Z,96358.08
2018-03-29T06:09:12.428Z,96352.98
2018-03-29T06:09:44.055Z,96365.67
2018-03-29T06:10:15.683Z,96360.27
2018-03-29T06:10:47.306Z,96366.55
2018-03-29T06:11:18.926Z,96365.38
2018-03-29T06:11:50.606Z,96370.38